sensor_id;sensor_type;location;lat;lon;timestamp;pressure;altitude;pressure_sealevel;temperature;humidity
10482;BME280;5288;42.334;23.876;2023-08-30T00:01:05;56122.56;;;-140.56;100.00
10482;BME280;5288;42.334;23.876;2023-08-30T00:03:32;56146.28;;;-140.56;100.00
10482;BME280;5288;42.334;23.876;2023-08-30T00:06:02;56106.75;;;-140.56;100.00
10482;BME280;5288;42.334;23.876;2023-08-30T00:08:30;56104.78;;;-140.56;100.00
10482;BME280;5288;42.334;23.876;2023-08-30T00:10:57;56108.72;;;-140.56;100.00
10482;BME280;5288;42.334;23.876;2023-08-30T00:13:24;56092.91;;;-140.56;100.00
10482;BME280;5288;42.334;23.876;2023-08-30T00:15:51;56124.53;;;-140.56;100.00
10482;BME280;5288;42.334;23.876;2023-08-30T00:18:20;56120.59;;;-140.56;100.00
10482;BME280;5288;42.334;23.876;2023-08-30T00:20:47;56120.59;;;-140.56;100.00
10482;BME280;5288;42.334;23.876;2023-08-30T00:23:14;56170.00;;;-140.56;100.00
10482;BME280;5288;42.334;23.876;2023-08-30T00:25:42;56148.25;;;-140.56;100.00
10482;BME280;5288;42.334;23.876;2023-08-30T00:28:09;56098.84;;;-140.56;100.00
10482;BME280;5288;42.334;23.876;2023-08-30T00:30:36;56112.69;;;-140.56;100.00
10482;BME280;5288;42.334;23.876;2023-08-30T00:33:03;56128.50;;;-140.56;100.00
10482;BME280;5288;42.334;23.876;2023-08-30T00:35:32;56136.41;;;-140.56;100.00
10482;BME280;5288;42.334;23.876;2023-08-30T00:37:59;56132.44;;;-140.56;100.00
10482;BME280;5288;42.334;23.876;2023-08-30T00:40:28;56110.72;;;-140.56;100.00
10482;BME280;5288;42.334;23.876;2023-08-30T00:42:56;56144.31;;;-140.56;100.00
10482;BME280;5288;42.334;23.876;2023-08-30T00:45:23;56104.78;;;-140.56;100.00
10482;BME280;5288;42.334;23.876;2023-08-30T00:47:51;56171.97;;;-140.56;100.00
10482;BME280;5288;42.334;23.876;2023-08-30T00:50:18;56134.41;;;-140.56;100.00
10482;BME280;5288;42.334;23.876;2023-08-30T00:52:47;56110.72;;;-140.56;100.00
10482;BME280;5288;42.334;23.876;2023-08-30T00:55:14;56124.53;;;-140.56;100.00
10482;BME280;5288;42.334;23.876;2023-08-30T00:57:41;56148.25;;;-140.56;100.00
10482;BME280;5288;42.334;23.876;2023-08-30T01:00:10;56132.44;;;-140.56;100.00
10482;BME280;5288;42.334;23.876;2023-08-30T01:02:37;56146.28;;;-140.56;100.00
10482;BME280;5288;42.334;23.876;2023-08-30T01:05:05;56152.22;;;-140.56;100.00
10482;BME280;5288;42.334;23.876;2023-08-30T01:07:32;56160.13;;;-140.56;100.00
10482;BME280;5288;42.334;23.876;2023-08-30T01:10:00;56156.16;;;-140.56;100.00
10482;BME280;5288;42.334;23.876;2023-08-30T01:12:32;56116.63;;;-140.56;100.00
10482;BME280;5288;42.334;23.876;2023-08-30T01:15:07;56152.22;;;-140.56;100.00
10482;BME280;5288;42.334;23.876;2023-08-30T01:17:36;56140.34;;;-140.56;100.00
10482;BME280;5288;42.334;23.876;2023-08-30T01:20:06;56128.50;;;-140.56;100.00
10482;BME280;5288;42.334;23.876;2023-08-30T01:22:43;56152.22;;;-140.56;100.00
10482;BME280;5288;42.334;23.876;2023-08-30T01:25:20;56120.59;;;-140.56;100.00
10482;BME280;5288;42.334;23.876;2023-08-30T01:27:51;56146.28;;;-140.56;100.00
10482;BME280;5288;42.334;23.876;2023-08-30T01:30:19;56146.28;;;-140.56;100.00
10482;BME280;5288;42.334;23.876;2023-08-30T01:32:48;56158.13;;;-140.56;100.00
10482;BME280;5288;42.334;23.876;2023-08-30T01:35:16;56136.41;;;-140.56;100.00
10482;BME280;5288;42.334;23.876;2023-08-30T01:37:46;56140.34;;;-140.56;100.00
10482;BME280;5288;42.334;23.876;2023-08-30T01:40:15;56134.41;;;-140.56;100.00
10482;BME280;5288;42.334;23.876;2023-08-30T01:42:44;56138.38;;;-140.56;100.00
10482;BME280;5288;42.334;23.876;2023-08-30T01:45:14;56108.72;;;-140.56;100.00
10482;BME280;5288;42.334;23.876;2023-08-30T01:47:42;56134.41;;;-140.56;100.00
10482;BME280;5288;42.334;23.876;2023-08-30T01:50:11;56130.47;;;-140.56;100.00
10482;BME280;5288;42.334;23.876;2023-08-30T01:52:39;56116.63;;;-140.56;100.00
10482;BME280;5288;42.334;23.876;2023-08-30T01:55:08;56170.00;;;-140.56;100.00
10482;BME280;5288;42.334;23.876;2023-08-30T01:57:35;56124.53;;;-140.56;100.00
10482;BME280;5288;42.334;23.876;2023-08-30T02:00:03;56136.41;;;-140.56;100.00
10482;BME280;5288;42.334;23.876;2023-08-30T02:02:33;56128.50;;;-140.56;100.00
10482;BME280;5288;42.334;23.876;2023-08-30T02:05:00;56154.19;;;-140.56;100.00
10482;BME280;5288;42.334;23.876;2023-08-30T02:07:34;56132.44;;;-140.56;100.00
10482;BME280;5288;42.334;23.876;2023-08-30T02:10:07;56118.59;;;-140.56;100.00
10482;BME280;5288;42.334;23.876;2023-08-30T02:12:39;56170.00;;;-140.56;100.00
10482;BME280;5288;42.334;23.876;2023-08-30T02:15:07;56142.31;;;-140.56;100.00
10482;BME280;5288;42.334;23.876;2023-08-30T02:17:37;56142.31;;;-140.56;100.00
10482;BME280;5288;42.334;23.876;2023-08-30T02:20:06;56144.31;;;-140.56;100.00
10482;BME280;5288;42.334;23.876;2023-08-30T02:22:33;56148.25;;;-140.56;100.00
10482;BME280;5288;42.334;23.876;2023-08-30T02:25:00;56130.47;;;-140.56;100.00
10482;BME280;5288;42.334;23.876;2023-08-30T02:27:30;56144.31;;;-140.56;100.00
10482;BME280;5288;42.334;23.876;2023-08-30T02:29:57;56173.94;;;-140.56;100.00
10482;BME280;5288;42.334;23.876;2023-08-30T02:32:24;56154.19;;;-140.56;100.00
10482;BME280;5288;42.334;23.876;2023-08-30T02:34:52;56160.13;;;-140.56;100.00
10482;BME280;5288;42.334;23.876;2023-08-30T02:37:20;56134.41;;;-140.56;100.00
10482;BME280;5288;42.334;23.876;2023-08-30T02:39:47;56148.25;;;-140.56;100.00
10482;BME280;5288;42.334;23.876;2023-08-30T02:42:14;56144.31;;;-140.56;100.00
10482;BME280;5288;42.334;23.876;2023-08-30T02:44:41;56158.13;;;-140.56;100.00
10482;BME280;5288;42.334;23.876;2023-08-30T02:47:08;56140.34;;;-140.56;100.00
10482;BME280;5288;42.334;23.876;2023-08-30T02:49:35;56128.50;;;-140.56;100.00
10482;BME280;5288;42.334;23.876;2023-08-30T02:52:04;56116.63;;;-140.56;100.00
10482;BME280;5288;42.334;23.876;2023-08-30T02:54:31;56138.38;;;-140.56;100.00
10482;BME280;5288;42.334;23.876;2023-08-30T02:56:57;56132.44;;;-140.56;100.00
10482;BME280;5288;42.334;23.876;2023-08-30T02:59:24;56177.91;;;-140.56;100.00
10482;BME280;5288;42.334;23.876;2023-08-30T03:01:51;56150.22;;;-140.56;100.00
10482;BME280;5288;42.334;23.876;2023-08-30T03:04:18;56164.06;;;-140.56;100.00
10482;BME280;5288;42.334;23.876;2023-08-30T03:06:45;56173.94;;;-140.56;100.00
10482;BME280;5288;42.334;23.876;2023-08-30T03:09:13;56144.31;;;-140.56;100.00
10482;BME280;5288;42.334;23.876;2023-08-30T03:11:40;56136.41;;;-140.56;100.00
10482;BME280;5288;42.334;23.876;2023-08-30T03:14:07;56156.16;;;-140.56;100.00
10482;BME280;5288;42.334;23.876;2023-08-30T03:16:34;56164.06;;;-140.56;100.00
10482;BME280;5288;42.334;23.876;2023-08-30T03:19:02;56189.75;;;-140.56;100.00
10482;BME280;5288;42.334;23.876;2023-08-30T03:21:29;56177.91;;;-140.56;100.00
10482;BME280;5288;42.334;23.876;2023-08-30T03:23:56;56177.91;;;-140.56;100.00
10482;BME280;5288;42.334;23.876;2023-08-30T03:26:24;56170.00;;;-140.56;100.00
10482;BME280;5288;42.334;23.876;2023-08-30T03:28:53;56183.81;;;-140.56;100.00
10482;BME280;5288;42.334;23.876;2023-08-30T03:31:21;56179.88;;;-140.56;100.00
10482;BME280;5288;42.334;23.876;2023-08-30T03:33:48;56122.56;;;-140.56;100.00
10482;BME280;5288;42.334;23.876;2023-08-30T03:36:17;56158.13;;;-140.56;100.00
10482;BME280;5288;42.334;23.876;2023-08-30T03:38:44;56152.22;;;-140.56;100.00
10482;BME280;5288;42.334;23.876;2023-08-30T03:41:12;56160.13;;;-140.56;100.00
10482;BME280;5288;42.334;23.876;2023-08-30T03:43:40;56189.75;;;-140.56;100.00
10482;BME280;5288;42.334;23.876;2023-08-30T03:46:07;56171.97;;;-140.56;100.00
10482;BME280;5288;42.334;23.876;2023-08-30T03:48:34;56177.91;;;-140.56;100.00
10482;BME280;5288;42.334;23.876;2023-08-30T03:51:01;56175.91;;;-140.56;100.00
10482;BME280;5288;42.334;23.876;2023-08-30T03:53:28;56160.13;;;-140.56;100.00
10482;BME280;5288;42.334;23.876;2023-08-30T03:55:56;56191.72;;;-140.56;100.00
10482;BME280;5288;42.334;23.876;2023-08-30T03:58:23;56170.00;;;-140.56;100.00
10482;BME280;5288;42.334;23.876;2023-08-30T04:00:52;56195.69;;;-140.56;100.00
10482;BME280;5288;42.334;23.876;2023-08-30T04:03:19;56185.81;;;-140.56;100.00
10482;BME280;5288;42.334;23.876;2023-08-30T04:05:46;56171.97;;;-140.56;100.00
10482;BME280;5288;42.334;23.876;2023-08-30T04:08:13;56199.63;;;-140.56;100.00
10482;BME280;5288;42.334;23.876;2023-08-30T04:10:41;56187.78;;;-140.56;100.00
10482;BME280;5288;42.334;23.876;2023-08-30T04:13:09;56193.72;;;-140.56;100.00
10482;BME280;5288;42.334;23.876;2023-08-30T04:15:37;56160.13;;;-140.56;100.00
10482;BME280;5288;42.334;23.876;2023-08-30T04:18:06;56189.75;;;-140.56;100.00
10482;BME280;5288;42.334;23.876;2023-08-30T04:20:33;56168.00;;;-140.56;100.00
10482;BME280;5288;42.334;23.876;2023-08-30T04:23:01;56144.31;;;-140.56;100.00
10482;BME280;5288;42.334;23.876;2023-08-30T04:25:28;56164.06;;;-140.56;100.00
10482;BME280;5288;42.334;23.876;2023-08-30T04:27:55;56191.72;;;-140.56;100.00
10482;BME280;5288;42.334;23.876;2023-08-30T04:30:23;56140.34;;;-140.56;100.00
10482;BME280;5288;42.334;23.876;2023-08-30T04:32:50;56164.06;;;-140.56;100.00
10482;BME280;5288;42.334;23.876;2023-08-30T04:35:18;56166.03;;;-140.56;100.00
10482;BME280;5288;42.334;23.876;2023-08-30T04:37:45;56116.63;;;-140.56;100.00
10482;BME280;5288;42.334;23.876;2023-08-30T04:40:14;56144.31;;;-140.56;100.00
10482;BME280;5288;42.334;23.876;2023-08-30T04:42:41;56138.38;;;-140.56;100.00
10482;BME280;5288;42.334;23.876;2023-08-30T04:45:08;56183.81;;;-140.56;100.00
10482;BME280;5288;42.334;23.876;2023-08-30T04:47:36;56146.28;;;-140.56;100.00
10482;BME280;5288;42.334;23.876;2023-08-30T04:50:03;56160.13;;;-140.56;100.00
10482;BME280;5288;42.334;23.876;2023-08-30T04:52:32;56160.13;;;-140.56;100.00
10482;BME280;5288;42.334;23.876;2023-08-30T04:54:59;56195.69;;;-140.56;100.00
10482;BME280;5288;42.334;23.876;2023-08-30T04:57:26;56160.13;;;-140.56;100.00
10482;BME280;5288;42.334;23.876;2023-08-30T04:59:53;56152.22;;;-140.56;100.00
10482;BME280;5288;42.334;23.876;2023-08-30T05:02:20;56211.50;;;-140.56;100.00
10482;BME280;5288;42.334;23.876;2023-08-30T05:04:47;56177.91;;;-140.56;100.00
10482;BME280;5288;42.334;23.876;2023-08-30T05:07:14;56146.28;;;-140.56;100.00
10482;BME280;5288;42.334;23.876;2023-08-30T05:09:42;56146.28;;;-140.56;100.00
10482;BME280;5288;42.334;23.876;2023-08-30T05:12:09;56152.22;;;-140.56;100.00
10482;BME280;5288;42.334;23.876;2023-08-30T05:14:36;56156.16;;;-140.56;100.00
10482;BME280;5288;42.334;23.876;2023-08-30T05:17:03;56150.22;;;-140.56;100.00
10482;BME280;5288;42.334;23.876;2023-08-30T05:19:30;56132.44;;;-140.56;100.00
10482;BME280;5288;42.334;23.876;2023-08-30T05:21:57;56132.44;;;-140.56;100.00
10482;BME280;5288;42.334;23.876;2023-08-30T05:24:24;56132.44;;;-140.56;100.00
10482;BME280;5288;42.334;23.876;2023-08-30T05:26:53;56142.31;;;-140.56;100.00
10482;BME280;5288;42.334;23.876;2023-08-30T05:29:20;56130.47;;;-140.56;100.00
10482;BME280;5288;42.334;23.876;2023-08-30T05:31:47;56136.41;;;-140.56;100.00
10482;BME280;5288;42.334;23.876;2023-08-30T05:34:14;56108.72;;;-140.56;100.00
10482;BME280;5288;42.334;23.876;2023-08-30T05:36:41;56100.81;;;-140.56;100.00
10482;BME280;5288;42.334;23.876;2023-08-30T05:39:08;56146.28;;;-140.56;100.00
10482;BME280;5288;42.334;23.876;2023-08-30T05:41:35;56102.81;;;-140.56;100.00
10482;BME280;5288;42.334;23.876;2023-08-30T05:44:05;56106.75;;;-140.56;100.00
10482;BME280;5288;42.334;23.876;2023-08-30T05:46:32;56087.00;;;-140.56;100.00
10482;BME280;5288;42.334;23.876;2023-08-30T05:48:59;56088.97;;;-140.56;100.00
10482;BME280;5288;42.334;23.876;2023-08-30T05:51:28;56088.97;;;-140.56;100.00
10482;BME280;5288;42.334;23.876;2023-08-30T05:53:55;56077.09;;;-140.56;100.00
10482;BME280;5288;42.334;23.876;2023-08-30T05:56:22;56108.72;;;-140.56;100.00
10482;BME280;5288;42.334;23.876;2023-08-30T05:58:49;56090.94;;;-140.56;100.00
10482;BME280;5288;42.334;23.876;2023-08-30T06:01:19;56061.31;;;-140.56;100.00
10482;BME280;5288;42.334;23.876;2023-08-30T06:03:46;56108.72;;;-140.56;100.00
10482;BME280;5288;42.334;23.876;2023-08-30T06:06:13;56081.06;;;-140.56;100.00
10482;BME280;5288;42.334;23.876;2023-08-30T06:08:40;56067.22;;;-140.56;100.00
10482;BME280;5288;42.334;23.876;2023-08-30T06:11:07;56077.09;;;-140.56;100.00
10482;BME280;5288;42.334;23.876;2023-08-30T06:13:34;56120.59;;;-140.56;100.00
10482;BME280;5288;42.334;23.876;2023-08-30T06:16:01;56081.06;;;-140.56;100.00
10482;BME280;5288;42.334;23.876;2023-08-30T06:18:30;56110.72;;;-140.56;100.00
10482;BME280;5288;42.334;23.876;2023-08-30T06:20:57;56081.06;;;-140.56;100.00
10482;BME280;5288;42.334;23.876;2023-08-30T06:23:24;56079.09;;;-140.56;100.00
10482;BME280;5288;42.334;23.876;2023-08-30T06:25:54;56069.22;;;-140.56;100.00
10482;BME280;5288;42.334;23.876;2023-08-30T06:28:22;56077.09;;;-140.56;100.00
10482;BME280;5288;42.334;23.876;2023-08-30T06:30:49;56073.16;;;-140.56;100.00
10482;BME280;5288;42.334;23.876;2023-08-30T06:33:16;56090.94;;;-140.56;99.69
10482;BME280;5288;42.334;23.876;2023-08-30T06:35:47;56055.38;;;-140.56;100.00
10482;BME280;5288;42.334;23.876;2023-08-30T06:38:14;56096.88;;;-140.56;99.41
10482;BME280;5288;42.334;23.876;2023-08-30T06:40:43;56055.38;;;-140.56;97.86
10482;BME280;5288;42.334;23.876;2023-08-30T06:43:10;56063.28;;;-140.56;97.62
10482;BME280;5288;42.334;23.876;2023-08-30T06:45:38;56071.19;;;-140.56;98.24
10482;BME280;5288;42.334;23.876;2023-08-30T06:48:06;56083.03;;;-140.56;99.05
10482;BME280;5288;42.334;23.876;2023-08-30T06:50:33;56047.47;;;-140.56;100.00
10482;BME280;5288;42.334;23.876;2023-08-30T06:53:02;56069.22;;;-140.56;100.00
10482;BME280;5288;42.334;23.876;2023-08-30T06:55:29;56037.59;;;-140.56;100.00
10482;BME280;5288;42.334;23.876;2023-08-30T06:57:57;56051.41;;;-140.56;98.99
10482;BME280;5288;42.334;23.876;2023-08-30T07:00:24;56067.22;;;-140.56;95.33
10482;BME280;5288;42.334;23.876;2023-08-30T07:02:51;56096.88;;;-140.56;95.58
10482;BME280;5288;42.334;23.876;2023-08-30T07:05:18;56059.31;;;-140.56;94.22
10482;BME280;5288;42.334;23.876;2023-08-30T07:07:45;56065.25;;;-140.56;91.08
10482;BME280;5288;42.334;23.876;2023-08-30T07:10:13;56035.63;;;-140.56;90.90
10482;BME280;5288;42.334;23.876;2023-08-30T07:12:40;56021.78;;;-140.56;90.66
10482;BME280;5288;42.334;23.876;2023-08-30T07:15:08;56053.41;;;-140.56;93.51
10482;BME280;5288;42.334;23.876;2023-08-30T07:17:35;56049.44;;;-140.56;94.84
10482;BME280;5288;42.334;23.876;2023-08-30T07:20:02;56055.38;;;-140.56;94.80
10482;BME280;5288;42.334;23.876;2023-08-30T07:22:31;56045.50;;;-140.56;95.06
10482;BME280;5288;42.334;23.876;2023-08-30T07:24:58;56051.41;;;-140.56;93.66
10482;BME280;5288;42.334;23.876;2023-08-30T07:27:26;56039.56;;;-140.56;87.92
10482;BME280;5288;42.334;23.876;2023-08-30T07:29:54;56017.81;;;-140.56;87.77
10482;BME280;5288;42.334;23.876;2023-08-30T07:32:21;56047.47;;;-140.56;86.93
10482;BME280;5288;42.334;23.876;2023-08-30T07:34:48;56005.97;;;-140.56;82.79
10482;BME280;5288;42.334;23.876;2023-08-30T07:37:18;56023.75;;;-140.56;83.01
10482;BME280;5288;42.334;23.876;2023-08-30T07:39:46;56027.72;;;-140.56;81.10
10482;BME280;5288;42.334;23.876;2023-08-30T07:42:13;55996.09;;;-140.56;80.63
10482;BME280;5288;42.334;23.876;2023-08-30T07:44:42;56021.78;;;-140.56;78.58
10482;BME280;5288;42.334;23.876;2023-08-30T07:47:09;56002.00;;;-140.56;77.58
10482;BME280;5288;42.334;23.876;2023-08-30T07:49:36;56005.97;;;-140.56;75.39
10482;BME280;5288;42.334;23.876;2023-08-30T07:52:03;55994.13;;;-140.56;75.79
10482;BME280;5288;42.334;23.876;2023-08-30T07:54:31;55996.09;;;-140.56;73.00
10482;BME280;5288;42.334;23.876;2023-08-30T07:56:58;55992.13;;;-140.56;72.08
10482;BME280;5288;42.334;23.876;2023-08-30T07:59:25;55964.47;;;-140.56;71.43
10482;BME280;5288;42.334;23.876;2023-08-30T08:01:53;55944.72;;;-140.56;72.06
10482;BME280;5288;42.334;23.876;2023-08-30T08:04:21;55954.59;;;-140.56;69.23
10482;BME280;5288;42.334;23.876;2023-08-30T08:06:48;55944.72;;;-140.56;68.60
10482;BME280;5288;42.334;23.876;2023-08-30T08:09:15;55938.78;;;-140.56;67.59
10482;BME280;5288;42.334;23.876;2023-08-30T08:11:42;55942.72;;;-140.56;67.65
10482;BME280;5288;42.334;23.876;2023-08-30T08:14:10;55926.94;;;-140.56;66.92
10482;BME280;5288;42.334;23.876;2023-08-30T08:16:38;55921.00;;;-140.56;65.61
10482;BME280;5288;42.334;23.876;2023-08-30T08:19:06;55944.72;;;-140.56;65.03
10482;BME280;5288;42.334;23.876;2023-08-30T08:21:33;55926.94;;;-140.56;62.04
10482;BME280;5288;42.334;23.876;2023-08-30T08:24:01;55913.09;;;-140.56;60.27
10482;BME280;5288;42.334;23.876;2023-08-30T08:26:28;55901.22;;;-140.56;58.41
10482;BME280;5288;42.334;23.876;2023-08-30T08:28:55;55924.94;;;-140.56;56.35
10482;BME280;5288;42.334;23.876;2023-08-30T08:31:22;55869.63;;;-140.56;57.00
10482;BME280;5288;42.334;23.876;2023-08-30T08:33:51;55903.22;;;-140.56;55.40
10482;BME280;5288;42.334;23.876;2023-08-30T08:36:20;55893.34;;;-140.56;57.72
10482;BME280;5288;42.334;23.876;2023-08-30T08:38:47;55917.03;;;-140.56;51.15
10482;BME280;5288;42.334;23.876;2023-08-30T08:41:15;55873.56;;;-140.56;56.72
10482;BME280;5288;42.334;23.876;2023-08-30T08:43:43;55875.53;;;-140.56;55.09
10482;BME280;5288;42.334;23.876;2023-08-30T08:46:13;55857.75;;;-140.56;50.33
10482;BME280;5288;42.334;23.876;2023-08-30T08:48:43;55873.56;;;-140.56;51.77
10482;BME280;5288;42.334;23.876;2023-08-30T08:51:11;55881.47;;;-140.56;50.38
10482;BME280;5288;42.334;23.876;2023-08-30T08:53:41;55845.91;;;-140.56;52.53
10482;BME280;5288;42.334;23.876;2023-08-30T08:56:09;55855.78;;;-140.56;48.77
10482;BME280;5288;42.334;23.876;2023-08-30T08:58:36;55871.59;;;-140.56;47.99
10482;BME280;5288;42.334;23.876;2023-08-30T09:01:04;55847.88;;;-140.56;47.68
10482;BME280;5288;42.334;23.876;2023-08-30T09:03:32;55875.53;;;-140.56;50.00
10482;BME280;5288;42.334;23.876;2023-08-30T09:06:01;55849.84;;;-140.56;48.46
10482;BME280;5288;42.334;23.876;2023-08-30T09:08:28;55853.81;;;-140.56;47.26
10482;BME280;5288;42.334;23.876;2023-08-30T09:10:56;55869.63;;;-140.56;46.49
10482;BME280;5288;42.334;23.876;2023-08-30T09:13:23;55851.84;;;-140.56;44.54
10482;BME280;5288;42.334;23.876;2023-08-30T09:15:51;55851.84;;;-140.56;48.00
10482;BME280;5288;42.334;23.876;2023-08-30T09:18:18;55838.00;;;-140.56;43.31
10482;BME280;5288;42.334;23.876;2023-08-30T09:20:45;55810.34;;;-140.56;46.06
10482;BME280;5288;42.334;23.876;2023-08-30T09:23:17;55814.28;;;-140.56;45.62
10482;BME280;5288;42.334;23.876;2023-08-30T09:25:44;55790.56;;;-140.56;44.21
10482;BME280;5288;42.334;23.876;2023-08-30T09:28:13;55808.34;;;-140.56;43.83
10482;BME280;5288;42.334;23.876;2023-08-30T09:30:40;55800.47;;;-140.56;43.50
10482;BME280;5288;42.334;23.876;2023-08-30T09:33:07;55822.19;;;-140.56;42.64
10482;BME280;5288;42.334;23.876;2023-08-30T09:35:43;55834.06;;;-140.56;42.96
10482;BME280;5288;42.334;23.876;2023-08-30T09:38:16;55800.47;;;-140.56;44.58
10482;BME280;5288;42.334;23.876;2023-08-30T09:40:44;55800.47;;;-140.56;42.03
10482;BME280;5288;42.334;23.876;2023-08-30T09:43:13;55788.59;;;-140.56;44.18
10482;BME280;5288;42.334;23.876;2023-08-30T09:45:40;55798.47;;;-140.56;45.46
10482;BME280;5288;42.334;23.876;2023-08-30T09:48:08;55766.88;;;-140.56;41.62
10482;BME280;5288;42.334;23.876;2023-08-30T09:50:36;55772.78;;;-140.56;43.46
10482;BME280;5288;42.334;23.876;2023-08-30T09:53:07;55784.66;;;-140.56;43.08
10482;BME280;5288;42.334;23.876;2023-08-30T09:55:35;55800.47;;;-140.56;41.66
10482;BME280;5288;42.334;23.876;2023-08-30T09:58:02;55806.38;;;-140.56;40.07
10482;BME280;5288;42.334;23.876;2023-08-30T10:00:32;55806.38;;;-140.56;40.51
10482;BME280;5288;42.334;23.876;2023-08-30T10:03:00;55786.63;;;-140.56;42.62
10482;BME280;5288;42.334;23.876;2023-08-30T10:05:27;55756.97;;;-140.56;42.09
10482;BME280;5288;42.334;23.876;2023-08-30T10:07:56;55776.75;;;-140.56;42.84
10482;BME280;5288;42.334;23.876;2023-08-30T10:10:23;55762.91;;;-140.56;40.11
10482;BME280;5288;42.334;23.876;2023-08-30T10:12:51;55733.28;;;-140.56;39.88
10482;BME280;5288;42.334;23.876;2023-08-30T10:15:21;55751.06;;;-140.56;39.71
10482;BME280;5288;42.334;23.876;2023-08-30T10:17:54;55739.19;;;-140.56;39.83
10482;BME280;5288;42.334;23.876;2023-08-30T10:20:26;55737.22;;;-140.56;38.58
10482;BME280;5288;42.334;23.876;2023-08-30T10:22:54;55747.09;;;-140.56;38.63
10482;BME280;5288;42.334;23.876;2023-08-30T10:25:25;55725.38;;;-140.56;39.11
10482;BME280;5288;42.334;23.876;2023-08-30T10:27:53;55727.34;;;-140.56;37.64
10482;BME280;5288;42.334;23.876;2023-08-30T10:30:21;55737.22;;;-140.56;38.02
10482;BME280;5288;42.334;23.876;2023-08-30T10:32:51;55713.50;;;-140.56;39.52
10482;BME280;5288;42.334;23.876;2023-08-30T10:35:18;55735.25;;;-140.56;38.74
10482;BME280;5288;42.334;23.876;2023-08-30T10:37:54;55741.19;;;-140.56;39.91
10482;BME280;5288;42.334;23.876;2023-08-30T10:40:21;55753.03;;;-140.56;40.24
10482;BME280;5288;42.334;23.876;2023-08-30T10:42:58;55751.06;;;-140.56;42.85
10482;BME280;5288;42.334;23.876;2023-08-30T10:45:25;55747.09;;;-140.56;39.08
10482;BME280;5288;42.334;23.876;2023-08-30T10:47:57;55766.88;;;-140.56;40.42
10482;BME280;5288;42.334;23.876;2023-08-30T10:50:28;55760.94;;;-140.56;40.47
10482;BME280;5288;42.334;23.876;2023-08-30T10:52:56;55774.75;;;-140.56;38.77
10482;BME280;5288;42.334;23.876;2023-08-30T10:55:24;55790.56;;;-140.56;39.08
10482;BME280;5288;42.334;23.876;2023-08-30T10:57:59;55737.22;;;-140.56;38.99
10482;BME280;5288;42.334;23.876;2023-08-30T11:00:28;55737.22;;;-140.56;38.81
10482;BME280;5288;42.334;23.876;2023-08-30T11:02:57;55703.63;;;-140.56;39.04
10482;BME280;5288;42.334;23.876;2023-08-30T11:05:25;55745.13;;;-140.56;38.25
10482;BME280;5288;42.334;23.876;2023-08-30T11:07:53;55745.13;;;-140.56;37.93
10482;BME280;5288;42.334;23.876;2023-08-30T11:10:20;55715.50;;;-140.56;38.55
10482;BME280;5288;42.334;23.876;2023-08-30T11:12:48;55689.81;;;-140.56;37.35
10482;BME280;5288;42.334;23.876;2023-08-30T11:15:16;55701.66;;;-140.56;38.28
10482;BME280;5288;42.334;23.876;2023-08-30T11:17:43;55681.91;;;-140.56;38.80
10482;BME280;5288;42.334;23.876;2023-08-30T11:20:14;55674.00;;;-140.56;38.65
10482;BME280;5288;42.334;23.876;2023-08-30T11:22:43;55656.22;;;-140.56;38.92
10482;BME280;5288;42.334;23.876;2023-08-30T11:25:11;55666.09;;;-140.56;36.91
10482;BME280;5288;42.334;23.876;2023-08-30T11:27:38;55658.19;;;-140.56;35.88
10482;BME280;5288;42.334;23.876;2023-08-30T11:30:06;55652.25;;;-140.56;37.14
10482;BME280;5288;42.334;23.876;2023-08-30T11:32:34;55668.06;;;-140.56;36.32
10482;BME280;5288;42.334;23.876;2023-08-30T11:35:02;55681.91;;;-140.56;36.09
10482;BME280;5288;42.334;23.876;2023-08-30T11:37:31;55695.72;;;-140.56;36.08
10482;BME280;5288;42.334;23.876;2023-08-30T11:39:58;55725.38;;;-140.56;37.48
10482;BME280;5288;42.334;23.876;2023-08-30T11:42:26;55725.38;;;-140.56;38.16
10482;BME280;5288;42.334;23.876;2023-08-30T11:44:53;55733.28;;;-140.56;38.17
10482;BME280;5288;42.334;23.876;2023-08-30T11:47:20;55707.59;;;-140.56;37.33
10482;BME280;5288;42.334;23.876;2023-08-30T11:49:49;55693.75;;;-140.56;37.70
10482;BME280;5288;42.334;23.876;2023-08-30T11:52:17;55683.88;;;-140.56;38.87
10482;BME280;5288;42.334;23.876;2023-08-30T11:54:47;55713.50;;;-140.56;38.20
10482;BME280;5288;42.334;23.876;2023-08-30T11:57:14;55709.56;;;-140.56;36.75
10482;BME280;5288;42.334;23.876;2023-08-30T11:59:41;55733.28;;;-140.56;37.66
10482;BME280;5288;42.334;23.876;2023-08-30T12:02:09;55707.59;;;-140.56;37.19
10482;BME280;5288;42.334;23.876;2023-08-30T12:04:41;55707.59;;;-140.56;37.61
10482;BME280;5288;42.334;23.876;2023-08-30T12:07:08;55697.69;;;-140.56;38.72
10482;BME280;5288;42.334;23.876;2023-08-30T12:09:36;55691.78;;;-140.56;39.02
10482;BME280;5288;42.334;23.876;2023-08-30T12:12:09;55713.50;;;-140.56;38.36
10482;BME280;5288;42.334;23.876;2023-08-30T12:14:37;55709.56;;;-140.56;38.13
10482;BME280;5288;42.334;23.876;2023-08-30T12:17:04;55741.19;;;-140.56;40.54
10482;BME280;5288;42.334;23.876;2023-08-30T12:19:34;55677.94;;;-140.56;39.88
10482;BME280;5288;42.334;23.876;2023-08-30T12:22:04;55681.91;;;-140.56;39.04
10482;BME280;5288;42.334;23.876;2023-08-30T12:24:42;55670.03;;;-140.56;36.98
10482;BME280;5288;42.334;23.876;2023-08-30T12:27:11;55674.00;;;-140.56;38.77
10482;BME280;5288;42.334;23.876;2023-08-30T12:29:39;55650.28;;;-140.56;37.76
10482;BME280;5288;42.334;23.876;2023-08-30T12:32:07;55662.13;;;-140.56;36.79
10482;BME280;5288;42.334;23.876;2023-08-30T12:34:34;55681.91;;;-140.56;36.10
10482;BME280;5288;42.334;23.876;2023-08-30T12:37:03;55719.44;;;-140.56;38.11
10482;BME280;5288;42.334;23.876;2023-08-30T12:39:30;55719.44;;;-140.56;39.03